createdAt,value
2023-05-13T00:00:17.367Z,47.16
2023-05-13T00:01:19.068Z,47.30
2023-05-13T00:02:21.030Z,47.36
2023-05-13T00:03:22.788Z,46.99
2023-05-13T00:04:24.334Z,47.06
2023-05-13T00:05:25.840Z,47.25
2023-05-13T00:06:27.412Z,47.09
2023-05-13T00:07:28.881Z,47.50
2023-05-13T00:08:30.316Z,47.37
2023-05-13T00:09:31.848Z,47.36
2023-05-13T00:10:33.351Z,47.24
2023-05-13T00:11:34.823Z,47.25
2023-05-13T00:12:36.260Z,47.27
2023-05-13T00:13:37.746Z,47.38
2023-05-13T00:14:39.374Z,47.44
2023-05-13T00:15:40.886Z,47.49
2023-05-13T00:16:42.436Z,47.40
2023-05-13T00:17:43.959Z,47.44
2023-05-13T00:18:45.493Z,47.58
2023-05-13T00:19:46.903Z,47.52
2023-05-13T00:20:48.389Z,47.29
2023-05-13T00:21:49.858Z,47.42
2023-05-13T00:22:51.360Z,47.44
2023-05-13T00:23:52.782Z,47.37
2023-05-13T00:24:54.216Z,47.42
2023-05-13T00:25:55.682Z,47.47
2023-05-13T00:26:57.082Z,47.34
2023-05-13T00:27:58.527Z,47.21
2023-05-13T00:29:00.035Z,47.35
2023-05-13T00:30:01.567Z,47.37
2023-05-13T00:31:03.106Z,47.29
2023-05-13T00:32:04.789Z,47.47
2023-05-13T00:33:06.309Z,47.25
2023-05-13T00:34:07.791Z,47.32
2023-05-13T00:35:09.219Z,47.45
2023-05-13T00:36:10.668Z,47.68
2023-05-13T00:37:12.127Z,47.42
2023-05-13T00:38:13.587Z,47.33
2023-05-13T00:39:15.034Z,47.71
2023-05-13T00:40:16.461Z,47.57
2023-05-13T00:41:17.952Z,47.50
2023-05-13T00:42:19.393Z,47.57
2023-05-13T00:43:20.833Z,47.53
2023-05-13T00:44:22.286Z,47.53
2023-05-13T00:45:23.753Z,47.44
2023-05-13T00:46:25.449Z,47.71
2023-05-13T00:47:26.977Z,47.40
2023-05-13T00:48:28.467Z,47.65
2023-05-13T00:49:29.878Z,48.07
2023-05-13T00:50:31.319Z,47.79
2023-05-13T00:51:32.818Z,47.93
2023-05-13T00:52:34.260Z,47.79
2023-05-13T00:53:35.703Z,47.60
2023-05-13T00:54:37.123Z,47.74
2023-05-13T00:55:38.542Z,47.84
2023-05-13T00:56:39.985Z,47.80
2023-05-13T00:57:41.418Z,47.62
2023-05-13T00:58:42.818Z,48.26
2023-05-13T00:59:44.244Z,47.78
2023-05-13T01:00:45.741Z,48.10
2023-05-13T01:01:47.257Z,47.84
2023-05-13T01:02:48.795Z,47.98
2023-05-13T01:03:50.305Z,47.93
2023-05-13T01:04:51.747Z,47.89
2023-05-13T01:05:53.169Z,48.30
2023-05-13T01:06:54.964Z,48.08
2023-05-13T01:07:56.352Z,48.02
2023-05-13T01:08:57.768Z,48.05
2023-05-13T01:09:59.190Z,48.10
2023-05-13T01:11:00.638Z,48.28
2023-05-13T01:12:02.071Z,48.24
2023-05-13T01:13:03.515Z,48.22
2023-05-13T01:14:04.975Z,48.22
2023-05-13T01:15:06.462Z,48.42
2023-05-13T01:16:07.935Z,48.17
2023-05-13T01:17:09.395Z,48.08
2023-05-13T01:18:10.977Z,48.22
2023-05-13T01:19:12.482Z,48.31
2023-05-13T01:20:13.934Z,48.38
2023-05-13T01:21:15.410Z,48.20
2023-05-13T01:22:16.859Z,48.49
2023-05-13T01:23:18.276Z,48.65
2023-05-13T01:24:19.720Z,48.54
2023-05-13T01:25:21.150Z,48.61
2023-05-13T01:26:22.601Z,48.65
2023-05-13T01:27:24.063Z,48.81
2023-05-13T01:28:25.507Z,48.46
2023-05-13T01:29:26.928Z,48.68
2023-05-13T01:30:28.372Z,48.80
2023-05-13T01:31:29.861Z,48.51
2023-05-13T01:32:31.388Z,48.65
2023-05-13T01:33:32.854Z,48.32
2023-05-13T01:34:34.261Z,48.51
2023-05-13T01:35:35.682Z,48.75
2023-05-13T01:36:37.125Z,48.68
2023-05-13T01:37:38.597Z,48.61
2023-05-13T01:38:39.991Z,48.79
2023-05-13T01:39:41.430Z,48.84
2023-05-13T01:40:42.857Z,48.53
2023-05-13T01:41:44.290Z,48.46
2023-05-13T01:42:45.751Z,48.43
2023-05-13T01:43:47.177Z,48.79
2023-05-13T01:44:48.616Z,48.69
2023-05-13T01:45:50.075Z,48.79
2023-05-13T01:46:51.544Z,48.78
2023-05-13T01:47:53.069Z,48.83
2023-05-13T01:48:54.504Z,49.05
2023-05-13T01:49:55.942Z,48.71
2023-05-13T01:50:57.397Z,48.64
2023-05-13T01:51:58.832Z,48.56
2023-05-13T01:53:00.297Z,48.55
2023-05-13T01:54:01.694Z,48.70
2023-05-13T01:55:03.138Z,48.98
2023-05-13T01:56:04.624Z,48.87
2023-05-13T01:57:06.075Z,48.95
2023-05-13T01:58:07.499Z,48.75
2023-05-13T01:59:08.913Z,48.83
2023-05-13T02:00:10.401Z,48.71
2023-05-13T02:01:11.851Z,48.87
2023-05-13T02:02:13.383Z,48.90
2023-05-13T02:03:14.892Z,48.77
2023-05-13T02:04:16.480Z,48.86
2023-05-13T02:05:18.170Z,48.90
2023-05-13T02:06:19.744Z,48.82
2023-05-13T02:07:21.163Z,48.88
2023-05-13T02:08:22.626Z,48.96
2023-05-13T02:09:24.036Z,48.67
2023-05-13T02:10:25.475Z,48.79
2023-05-13T02:11:27.008Z,48.82
2023-05-13T02:12:28.536Z,48.67
2023-05-13T02:13:29.966Z,48.65
2023-05-13T02:14:31.427Z,48.93
2023-05-13T02:15:32.867Z,49.06
2023-05-13T02:16:34.387Z,49.03
2023-05-13T02:17:35.854Z,48.80
2023-05-13T02:18:37.456Z,48.92
2023-05-13T02:19:38.880Z,49.13
2023-05-13T02:20:40.327Z,48.78
2023-05-13T02:21:41.764Z,48.90
2023-05-13T02:22:43.284Z,48.92
2023-05-13T02:23:44.744Z,48.96
2023-05-13T02:24:46.209Z,48.85
2023-05-13T02:25:47.666Z,49.07
2023-05-13T02:26:49.110Z,48.89
2023-05-13T02:27:50.504Z,48.94
2023-05-13T02:28:51.937Z,48.67
2023-05-13T02:29:53.389Z,49.15
2023-05-13T02:30:54.819Z,48.98
2023-05-13T02:31:56.340Z,48.91
2023-05-13T02:32:57.822Z,48.97
2023-05-13T02:33:59.293Z,49.15
2023-05-13T02:35:00.879Z,48.80
2023-05-13T02:36:02.368Z,48.95
2023-05-13T02:37:03.838Z,48.80
2023-05-13T02:38:05.283Z,49.11
2023-05-13T02:39:06.732Z,49.24
2023-05-13T02:40:08.244Z,48.75
2023-05-13T02:41:09.695Z,48.99
2023-05-13T02:42:11.157Z,48.85
2023-05-13T02:43:12.597Z,48.98
2023-05-13T02:44:14.058Z,48.94
2023-05-13T02:45:15.500Z,49.11
2023-05-13T02:46:17.016Z,48.88
2023-05-13T02:47:18.540Z,49.20
2023-05-13T02:48:19.997Z,49.06
2023-05-13T02:49:21.452Z,49.05
2023-05-13T02:50:23.069Z,49.14
2023-05-13T02:51:24.670Z,49.26
2023-05-13T02:52:26.144Z,49.08
2023-05-13T02:53:27.575Z,48.92
2023-05-13T02:54:29.001Z,49.21
2023-05-13T02:55:30.448Z,48.96
2023-05-13T02:56:31.934Z,48.98
2023-05-13T02:57:33.399Z,49.11
2023-05-13T02:58:34.866Z,49.24
2023-05-13T02:59:36.319Z,49.13
2023-05-13T03:00:37.808Z,48.98
2023-05-13T03:01:39.277Z,49.03
2023-05-13T03:02:40.863Z,49.19
2023-05-13T03:03:42.387Z,49.39
2023-05-13T03:04:43.895Z,49.18
2023-05-13T03:05:45.321Z,49.00
2023-05-13T03:06:46.780Z,49.30
2023-05-13T03:07:48.225Z,49.40
2023-05-13T03:08:49.652Z,49.21
2023-05-13T03:09:51.197Z,49.06
2023-05-13T03:10:52.657Z,49.23
2023-05-13T03:11:54.135Z,49.12
2023-05-13T03:12:55.645Z,49.10
2023-05-13T03:13:57.095Z,49.25
2023-05-13T03:14:58.601Z,49.40
2023-05-13T03:16:00.086Z,48.92
2023-05-13T03:17:02.046Z,49.17
2023-05-13T03:18:03.588Z,49.17
2023-05-13T03:19:05.105Z,49.04
2023-05-13T03:20:06.585Z,48.92
2023-05-13T03:21:08.039Z,49.75
2023-05-13T03:22:09.482Z,49.52
2023-05-13T03:23:10.917Z,49.09
2023-05-13T03:24:12.360Z,49.36
2023-05-13T03:25:13.828Z,49.46
2023-05-13T03:26:15.338Z,49.11
2023-05-13T03:27:16.761Z,49.38
2023-05-13T03:28:18.173Z,49.41
2023-05-13T03:29:19.591Z,49.39
2023-05-13T03:30:21.250Z,49.68
2023-05-13T03:31:22.863Z,49.61
2023-05-13T03:32:24.387Z,49.67
2023-05-13T03:33:25.882Z,49.21
2023-05-13T03:34:27.318Z,49.60
2023-05-13T03:35:29.026Z,49.66
2023-05-13T03:36:30.430Z,49.41
2023-05-13T03:37:31.856Z,49.33
2023-05-13T03:38:33.294Z,49.56
2023-05-13T03:39:34.766Z,49.50
2023-05-13T03:40:36.222Z,49.44
2023-05-13T03:41:37.730Z,49.46
2023-05-13T03:42:39.207Z,49.63
2023-05-13T03:43:40.704Z,49.36
2023-05-13T03:44:42.176Z,49.43
2023-05-13T03:45:43.616Z,49.16
2023-05-13T03:46:45.164Z,49.39
2023-05-13T03:47:46.787Z,49.30
2023-05-13T03:48:48.223Z,49.37
2023-05-13T03:49:49.653Z,49.39
2023-05-13T03:50:51.066Z,49.61
2023-05-13T03:51:52.557Z,49.43
2023-05-13T03:52:53.977Z,49.27
2023-05-13T03:53:55.476Z,49.28
2023-05-13T03:54:56.947Z,49.33
2023-05-13T03:55:58.452Z,49.44
2023-05-13T03:57:00.168Z,49.51
2023-05-13T03:58:01.646Z,49.37
2023-05-13T03:59:03.144Z,49.30
2023-05-13T04:00:04.605Z,49.44
2023-05-13T04:01:06.044Z,49.34
2023-05-13T04:02:07.554Z,49.23
2023-05-13T04:03:09.256Z,49.62
2023-05-13T04:04:10.797Z,49.57
2023-05-13T04:05:12.334Z,49.42
2023-05-13T04:06:13.800Z,49.26
2023-05-13T04:07:15.257Z,49.62
2023-05-13T04:08:16.796Z,49.58
2023-05-13T04:09:18.273Z,49.79
2023-05-13T04:10:19.906Z,49.47
2023-05-13T04:11:21.458Z,49.57
2023-05-13T04:12:22.925Z,49.45
2023-05-13T04:13:24.399Z,49.31
2023-05-13T04:14:25.855Z,49.74
2023-05-13T04:15:27.324Z,49.54
2023-05-13T04:16:28.880Z,49.77
2023-05-13T04:17:30.441Z,49.82
2023-05-13T04:18:31.930Z,49.72
2023-05-13T04:19:33.415Z,49.91
2023-05-13T04:20:34.872Z,49.42
2023-05-13T04:21:36.400Z,49.76
2023-05-13T04:22:37.906Z,49.86
2023-05-13T04:23:39.332Z,49.84
2023-05-13T04:24:40.794Z,49.57
2023-05-13T04:25:42.297Z,49.66
2023-05-13T04:26:43.848Z,49.47
2023-05-13T04:27:45.323Z,49.64
2023-05-13T04:28:46.773Z,49.71
2023-05-13T04:29:48.260Z,49.63
2023-05-13T04:30:49.679Z,49.71
2023-05-13T04:31:51.202Z,49.89
2023-05-13T04:32:52.866Z,49.45
2023-05-13T04:33:54.468Z,49.78
2023-05-13T04:34:55.968Z,49.74
2023-05-13T04:35:57.406Z,49.75
2023-05-13T04:36:58.907Z,49.97
2023-05-13T04:38:00.336Z,49.87
2023-05-13T04:39:01.832Z,50.05
2023-05-13T04:40:03.283Z,49.55
2023-05-13T04:41:04.730Z,49.61
2023-05-13T04:42:06.602Z,49.74
2023-05-13T04:43:08.160Z,49.87
2023-05-13T04:44:09.611Z,49.51
2023-05-13T04:45:11.069Z,49.72
2023-05-13T04:46:12.655Z,49.96
2023-05-13T04:47:14.190Z,49.94
2023-05-13T04:48:15.636Z,49.75
2023-05-13T04:49:17.106Z,49.94
2023-05-13T04:50:19.163Z,49.84
2023-05-13T04:51:20.917Z,49.83
2023-05-13T04:52:22.753Z,49.91
2023-05-13T04:53:24.186Z,49.90
2023-05-13T04:54:25.632Z,50.05
2023-05-13T04:55:27.846Z,49.58
2023-05-13T04:56:29.557Z,50.04
2023-05-13T04:57:31.107Z,49.88
2023-05-13T04:58:32.710Z,50.08
2023-05-13T04:59:34.291Z,50.45
2023-05-13T05:00:35.794Z,49.94
2023-05-13T05:01:37.326Z,50.30
2023-05-13T05:02:38.914Z,50.25
2023-05-13T05:03:40.481Z,50.20
2023-05-13T05:04:42.112Z,50.13
2023-05-13T05:05:43.635Z,50.30
2023-05-13T05:06:45.184Z,50.10
2023-05-13T05:07:46.794Z,50.25
2023-05-13T05:08:48.355Z,50.33
2023-05-13T05:09:49.863Z,50.12
2023-05-13T05:10:51.420Z,50.15
2023-05-13T05:11:53.026Z,50.30
2023-05-13T05:12:54.645Z,49.97
2023-05-13T05:13:56.177Z,49.81
2023-05-13T05:14:57.692Z,50.13
2023-05-13T05:15:59.256Z,50.03
2023-05-13T05:17:00.783Z,50.00
2023-05-13T05:18:02.540Z,50.62
2023-05-13T05:19:04.382Z,50.43
2023-05-13T05:20:06.085Z,50.33
2023-05-13T05:21:07.728Z,50.04
2023-05-13T05:22:09.293Z,50.33
2023-05-13T05:23:10.785Z,50.59
2023-05-13T05:24:12.383Z,50.17
2023-05-13T05:25:13.941Z,50.47
2023-05-13T05:26:15.493Z,50.31
2023-05-13T05:27:17.003Z,50.33
2023-05-13T05:28:18.615Z,50.24
2023-05-13T05:29:20.154Z,50.51
2023-05-13T05:30:21.967Z,50.41
2023-05-13T05:31:23.752Z,50.50
2023-05-13T05:32:25.437Z,50.38
2023-05-13T05:33:27.061Z,50.41
2023-05-13T05:34:28.596Z,50.14
2023-05-13T05:35:30.190Z,50.63
2023-05-13T05:36:31.821Z,50.50
2023-05-13T05:37:33.493Z,50.34
2023-05-13T05:38:35.053Z,50.51
2023-05-13T05:39:36.556Z,50.55
2023-05-13T05:40:38.114Z,50.63
2023-05-13T05:41:39.650Z,50.62
2023-05-13T05:42:41.484Z,50.07
2023-05-13T05:43:42.992Z,50.44
2023-05-13T05:44:44.593Z,50.10
2023-05-13T05:45:46.217Z,50.31
2023-05-13T05:46:48.156Z,50.58
2023-05-13T05:47:49.742Z,50.45
2023-05-13T05:48:51.289Z,50.44
2023-05-13T05:49:52.868Z,50.54
2023-05-13T05:50:54.397Z,50.24
2023-05-13T05:51:55.971Z,50.17
2023-05-13T05:52:57.552Z,50.29
2023-05-13T05:53:59.149Z,50.30
2023-05-13T05:55:00.737Z,50.46
2023-05-13T05:56:02.318Z,50.38
2023-05-13T05:57:03.955Z,50.60
2023-05-13T05:58:05.604Z,50.54
2023-05-13T05:59:07.286Z,50.30
2023-05-13T06:00:08.836Z,50.50
2023-05-13T06:01:10.355Z,50.75
2023-05-13T06:02:11.919Z,50.62
2023-05-13T06:03:13.720Z,50.38
2023-05-13T06:04:16.001Z,50.36
2023-05-13T06:05:17.619Z,50.69
2023-05-13T06:06:19.182Z,50.52
2023-05-13T06:07:20.667Z,50.49
2023-05-13T06:08:22.166Z,50.25
2023-05-13T06:09:23.845Z,50.07
2023-05-13T06:10:25.310Z,50.04
2023-05-13T06:11:26.731Z,50.52
2023-05-13T06:12:28.136Z,50.33
2023-05-13T06:13:29.538Z,50.57
2023-05-13T06:14:30.988Z,50.23
2023-05-13T06:15:32.630Z,50.20
2023-05-13T06:16:34.167Z,50.06
2023-05-13T06:17:35.660Z,50.30
2023-05-13T06:18:37.158Z,50.17
2023-05-13T06:19:38.632Z,50.00
2023-05-13T06:20:40.083Z,49.97
2023-05-13T06:21:41.537Z,50.23
2023-05-13T06:22:42.991Z,50.16
2023-05-13T06:23:44.434Z,50.14
2023-05-13T06:24:45.876Z,50.06
2023-05-13T06:25:47.320Z,49.75
2023-05-13T06:26:48.747Z,49.91
2023-05-13T06:27:50.209Z,49.78
2023-05-13T06:28:51.663Z,50.00
2023-05-13T06:29:53.088Z,49.85
2023-05-13T06:30:54.602Z,49.96
2023-05-13T06:31:56.035Z,49.78
2023-05-13T06:33:01.607Z,49.96
2023-05-13T06:34:04.015Z,49.87
2023-05-13T06:35:05.450Z,49.57
2023-05-13T06:36:06.889Z,49.71
2023-05-13T06:37:08.290Z,49.82
2023-05-13T06:38:09.694Z,49.88
2023-05-13T06:39:11.110Z,49.78
2023-05-13T06:40:12.592Z,49.78
2023-05-13T06:41:14.053Z,49.72
2023-05-13T06:42:15.531Z,49.88
2023-05-13T06:43:16.971Z,49.43
2023-05-13T06:44:18.394Z,49.57
2023-05-13T06:45:19.872Z,49.41
2023-05-13T06:46:21.348Z,49.49
2023-05-13T06:47:23.958Z,49.57
2023-05-13T06:48:25.560Z,49.75
2023-05-13T06:49:26.961Z,49.58
2023-05-13T06:50:28.397Z,49.30
2023-05-13T06:51:29.828Z,49.40
2023-05-13T06:52:31.259Z,49.23
2023-05-13T06:53:32.705Z,49.24
2023-05-13T06:54:34.133Z,49.05
2023-05-13T06:55:35.581Z,49.27
2023-05-13T06:56:37.022Z,49.54
2023-05-13T06:57:42.970Z,49.17
2023-05-13T06:58:45.116Z,49.50
2023-05-13T06:59:46.600Z,49.42
2023-05-13T07:00:48.282Z,49.31
2023-05-13T07:01:49.765Z,49.20
2023-05-13T07:02:51.199Z,49.60
2023-05-13T07:03:52.740Z,49.32
2023-05-13T07:04:54.190Z,49.13
2023-05-13T07:05:55.631Z,49.26
2023-05-13T07:06:57.102Z,49.22
2023-05-13T07:07:58.545Z,49.14
2023-05-13T07:08:59.932Z,49.11
2023-05-13T07:10:01.371Z,49.30
2023-05-13T07:11:02.768Z,49.01
2023-05-13T07:12:04.210Z,49.15
2023-05-13T07:13:05.641Z,49.29
2023-05-13T07:14:07.101Z,49.08
2023-05-13T07:15:08.546Z,48.90
2023-05-13T07:16:10.051Z,49.25
2023-05-13T07:17:11.705Z,49.12
2023-05-13T07:18:13.302Z,48.71
2023-05-13T07:19:14.928Z,48.82
2023-05-13T07:20:16.459Z,48.92
2023-05-13T07:21:18.004Z,48.81
2023-05-13T07:22:19.546Z,48.96
2023-05-13T07:23:21.081Z,49.02
2023-05-13T07:24:22.589Z,48.89
2023-05-13T07:25:24.127Z,49.00
2023-05-13T07:26:25.669Z,48.84
2023-05-13T07:27:27.312Z,48.97
2023-05-13T07:28:28.895Z,48.83
2023-05-13T07:29:30.440Z,48.50
2023-05-13T07:30:31.988Z,48.80
2023-05-13T07:31:33.500Z,48.53
2023-05-13T07:32:35.099Z,48.87
2023-05-13T07:33:36.687Z,48.58
2023-05-13T07:34:38.132Z,48.54
2023-05-13T07:35:40.029Z,48.55
2023-05-13T07:36:41.443Z,48.74
2023-05-13T07:37:42.902Z,48.43
2023-05-13T07:38:44.320Z,48.56
2023-05-13T07:39:45.743Z,48.36
2023-05-13T07:40:47.202Z,48.08
2023-05-13T07:41:48.713Z,48.40
2023-05-13T07:42:50.172Z,48.05
2023-05-13T07:43:51.569Z,48.24
2023-05-13T07:44:53.010Z,47.95
2023-05-13T07:45:54.460Z,47.91
2023-05-13T07:46:55.923Z,48.17
2023-05-13T07:47:57.461Z,47.92
2023-05-13T07:48:58.947Z,48.22
2023-05-13T07:50:00.370Z,47.80
2023-05-13T07:51:01.815Z,48.00
2023-05-13T07:52:03.240Z,47.98
2023-05-13T07:53:04.677Z,48.01
2023-05-13T07:54:06.104Z,47.85
2023-05-13T07:55:07.551Z,47.63
2023-05-13T07:56:09.012Z,47.49
2023-05-13T07:57:10.432Z,47.50
2023-05-13T07:58:12.079Z,47.55
2023-05-13T07:59:13.480Z,47.37
2023-05-13T08:00:14.897Z,47.79
2023-05-13T08:01:16.367Z,47.41
2023-05-13T08:02:17.800Z,47.28
2023-05-13T08:03:19.400Z,47.39
2023-05-13T08:04:21.114Z,47.18
2023-05-13T08:05:22.849Z,47.43
2023-05-13T08:06:24.480Z,46.99
2023-05-13T08:07:25.926Z,47.41
2023-05-13T08:08:27.368Z,47.14
2023-05-13T08:09:28.787Z,46.76
2023-05-13T08:10:30.252Z,47.11
2023-05-13T08:11:31.733Z,46.77
2023-05-13T08:12:33.172Z,46.80
2023-05-13T08:13:34.563Z,46.73
2023-05-13T08:14:36.019Z,46.42
2023-05-13T08:15:37.440Z,46.33
2023-05-13T08:16:38.949Z,46.49
2023-05-13T08:17:40.484Z,46.38
2023-05-13T08:18:41.928Z,46.51
2023-05-13T08:19:43.409Z,46.54
2023-05-13T08:20:44.810Z,46.36
2023-05-13T08:21:46.283Z,46.29
2023-05-13T08:22:47.802Z,46.49
2023-05-13T08:23:49.249Z,46.45
2023-05-13T08:24:50.670Z,45.94
2023-05-13T08:25:52.083Z,45.95
2023-05-13T08:26:53.516Z,45.93
2023-05-13T08:27:55.002Z,45.91
2023-05-13T08:28:56.408Z,45.44
2023-05-13T08:29:57.860Z,45.90
2023-05-13T08:30:59.281Z,45.52
2023-05-13T08:32:00.720Z,45.89
2023-05-13T08:33:02.214Z,45.73
2023-05-13T08:34:03.662Z,45.72
2023-05-13T08:35:05.058Z,45.57
2023-05-13T08:36:06.498Z,45.56
2023-05-13T08:37:07.925Z,45.82
2023-05-13T08:38:09.416Z,45.46
2023-05-13T08:39:10.845Z,45.42
2023-05-13T08:40:12.291Z,45.50
2023-05-13T08:41:13.747Z,45.62
2023-05-13T08:42:15.183Z,45.46
2023-05-13T08:43:16.666Z,44.74
2023-05-13T08:44:18.066Z,45.21
2023-05-13T08:45:19.641Z,45.07
2023-05-13T08:46:21.205Z,45.06
2023-05-13T08:47:22.725Z,44.48
2023-05-13T08:48:24.188Z,44.79
2023-05-13T08:49:25.606Z,45.07
2023-05-13T08:51:28.490Z,44.48
2023-05-13T08:52:29.921Z,44.27
2023-05-13T08:53:31.429Z,44.78
2023-05-13T08:54:32.918Z,44.80
2023-05-13T08:55:34.315Z,44.38
2023-05-13T08:56:35.740Z,44.31
2023-05-13T08:57:37.165Z,44.27
2023-05-13T08:58:38.999Z,44.44
2023-05-13T08:59:40.457Z,44.02
2023-05-13T09:00:41.866Z,44.23
2023-05-13T09:01:43.359Z,44.48
2023-05-13T09:02:44.858Z,44.26
2023-05-13T09:03:46.333Z,44.35
2023-05-13T09:04:47.819Z,44.25
2023-05-13T09:05:49.309Z,44.18
2023-05-13T09:06:50.736Z,44.24
2023-05-13T09:07:52.149Z,43.91
2023-05-13T09:08:53.628Z,43.94
2023-05-13T09:09:55.072Z,43.98
2023-05-13T09:10:56.504Z,43.67
2023-05-13T09:11:57.926Z,44.16
2023-05-13T09:12:59.357Z,43.98
2023-05-13T09:14:00.829Z,44.16
2023-05-13T09:15:02.289Z,43.59
2023-05-13T09:16:03.741Z,43.96
2023-05-13T09:17:05.225Z,43.77
2023-05-13T09:18:06.760Z,43.29
2023-05-13T09:19:08.930Z,42.92
2023-05-13T09:20:10.432Z,43.11
2023-05-13T09:21:11.848Z,43.57
2023-05-13T09:22:13.279Z,43.40
2023-05-13T09:23:14.674Z,42.99
2023-05-13T09:24:16.085Z,42.82
2023-05-13T09:25:17.497Z,43.18
2023-05-13T09:26:18.925Z,43.14
2023-05-13T09:27:20.346Z,43.58
2023-05-13T09:28:21.796Z,42.87
2023-05-13T09:29:23.242Z,42.81
2023-05-13T09:30:24.708Z,42.86
2023-05-13T09:31:26.186Z,43.41
2023-05-13T09:32:27.697Z,43.01
2023-05-13T09:33:29.149Z,43.34
2023-05-13T09:34:30.616Z,43.06
2023-05-13T09:35:32.071Z,43.00
2023-05-13T09:36:33.482Z,43.31
2023-05-13T09:37:34.903Z,42.72
2023-05-13T09:38:36.299Z,43.07
2023-05-13T09:39:37.712Z,43.25
2023-05-13T09:40:39.129Z,43.18
2023-05-13T09:41:40.577Z,43.12
2023-05-13T09:42:42.041Z,42.67
2023-05-13T09:43:43.452Z,42.81
2023-05-13T09:44:44.872Z,42.91
2023-05-13T09:45:46.266Z,42.69
2023-05-13T09:46:47.714Z,42.75
2023-05-13T09:47:49.203Z,43.00
2023-05-13T09:48:50.631Z,42.98
2023-05-13T09:49:52.084Z,42.54
2023-05-13T09:50:53.650Z,42.82
2023-05-13T09:51:55.157Z,42.15
2023-05-13T09:52:56.627Z,42.52
2023-05-13T09:53:58.044Z,42.39
2023-05-13T09:54:59.442Z,42.53
2023-05-13T09:56:00.876Z,42.58
2023-05-13T09:57:02.303Z,42.64
2023-05-13T09:58:03.754Z,42.68
2023-05-13T09:59:06.305Z,42.72
2023-05-13T10:00:12.851Z,42.38
2023-05-13T10:01:19.649Z,42.70
2023-05-13T10:02:21.109Z,42.67
2023-05-13T10:03:22.695Z,42.79
2023-05-13T10:04:24.233Z,42.64
2023-05-13T10:05:25.717Z,42.53
2023-05-13T10:06:27.127Z,42.51
2023-05-13T10:07:28.551Z,42.78
2023-05-13T10:08:30.013Z,42.63
2023-05-13T10:09:31.447Z,42.71
2023-05-13T10:10:32.893Z,42.83
2023-05-13T10:11:34.290Z,42.38
2023-05-13T10:12:35.735Z,42.53
2023-05-13T10:13:37.158Z,42.69
2023-05-13T10:14:38.568Z,42.07
2023-05-13T10:15:40.358Z,42.52
2023-05-13T10:16:41.843Z,42.27
2023-05-13T10:17:43.353Z,42.40
2023-05-13T10:18:44.905Z,42.00
2023-05-13T10:19:46.421Z,42.18
2023-05-13T10:20:47.874Z,41.93
2023-05-13T10:21:49.307Z,42.20
2023-05-13T10:22:50.734Z,41.76
2023-05-13T10:23:52.160Z,41.96
2023-05-13T10:24:53.613Z,41.61
2023-05-13T10:25:55.044Z,42.18
2023-05-13T10:26:56.443Z,41.95
2023-05-13T10:27:57.881Z,42.28
2023-05-13T10:28:59.324Z,42.10
2023-05-13T10:30:03.194Z,42.21
2023-05-13T10:31:05.248Z,42.43
2023-05-13T10:32:06.703Z,42.44
2023-05-13T10:33:08.192Z,42.08
2023-05-13T10:34:09.634Z,41.66
2023-05-13T10:35:11.048Z,42.41
2023-05-13T10:36:12.497Z,42.33
2023-05-13T10:37:13.894Z,42.35
2023-05-13T10:38:15.300Z,42.27
2023-05-13T10:39:16.714Z,41.58
2023-05-13T10:40:18.225Z,41.53
2023-05-13T10:41:19.757Z,41.83
2023-05-13T10:42:21.204Z,41.58
2023-05-13T10:43:22.630Z,41.44
2023-05-13T10:44:24.062Z,41.84
2023-05-13T10:45:25.536Z,41.62
2023-05-13T10:46:27.050Z,41.19
2023-05-13T10:47:28.736Z,41.91
2023-05-13T10:48:30.320Z,41.75
2023-05-13T10:49:31.781Z,41.72
2023-05-13T10:50:33.201Z,41.80
2023-05-13T10:51:34.642Z,41.50
2023-05-13T10:52:36.083Z,41.56
2023-05-13T10:53:37.542Z,41.84
2023-05-13T10:54:39.192Z,41.82
2023-05-13T10:55:40.615Z,41.77
2023-05-13T10:56:42.026Z,41.48
2023-05-13T10:57:43.510Z,41.60
2023-05-13T10:58:44.946Z,41.96
2023-05-13T10:59:46.759Z,41.96
2023-05-13T11:00:48.207Z,41.96
2023-05-13T11:01:49.778Z,41.53
2023-05-13T11:02:51.368Z,41.51
2023-05-13T11:03:53.038Z,41.71
2023-05-13T11:04:54.608Z,41.79
2023-05-13T11:05:56.071Z,42.11
2023-05-13T11:06:57.511Z,41.98
2023-05-13T11:07:58.915Z,42.22
2023-05-13T11:09:00.320Z,42.11
2023-05-13T11:10:01.742Z,42.25
2023-05-13T11:11:03.204Z,41.71
2023-05-13T11:12:04.644Z,41.83
2023-05-13T11:13:06.040Z,42.05
2023-05-13T11:14:08.582Z,42.30
2023-05-13T11:15:10.185Z,41.71
2023-05-13T11:16:11.858Z,42.33
2023-05-13T11:17:13.307Z,42.32
2023-05-13T11:18:14.767Z,42.05
2023-05-13T11:19:16.221Z,41.84
2023-05-13T11:20:17.662Z,42.15
2023-05-13T11:21:19.100Z,42.46
2023-05-13T11:22:20.550Z,42.01
2023-05-13T11:23:21.982Z,42.57
2023-05-13T11:24:23.421Z,42.36
2023-05-13T11:25:24.840Z,42.17
2023-05-13T11:26:26.299Z,42.18
2023-05-13T11:27:27.751Z,42.89
2023-05-13T11:28:29.215Z,42.84
2023-05-13T11:29:30.667Z,42.61
2023-05-13T11:30:32.086Z,42.43
2023-05-13T11:31:33.556Z,42.56
2023-05-13T11:32:35.063Z,42.73
2023-05-13T11:33:36.532Z,42.88
2023-05-13T11:34:37.942Z,42.89
2023-05-13T11:35:39.385Z,43.26
2023-05-13T11:36:41.286Z,42.98
2023-05-13T11:37:42.704Z,43.33
2023-05-13T11:38:44.159Z,43.24
2023-05-13T11:39:45.597Z,42.83
2023-05-13T11:40:47.001Z,42.86
2023-05-13T11:41:48.488Z,42.89
2023-05-13T11:42:49.895Z,42.82
2023-05-13T11:43:51.346Z,42.88
2023-05-13T11:44:52.755Z,42.92
2023-05-13T11:45:54.191Z,42.97
2023-05-13T11:46:55.657Z,42.96
2023-05-13T11:47:57.102Z,42.99
2023-05-13T11:48:58.522Z,43.46
2023-05-13T11:49:59.948Z,43.05
2023-05-13T11:51:01.402Z,42.99
2023-05-13T11:52:02.859Z,42.54
2023-05-13T11:53:04.301Z,42.66
2023-05-13T11:54:05.727Z,43.14
2023-05-13T11:55:07.194Z,43.49
2023-05-13T11:56:08.627Z,43.15
2023-05-13T11:57:10.078Z,43.00
2023-05-13T11:58:13.269Z,42.65
2023-05-13T11:59:14.751Z,42.94
2023-05-13T12:00:16.267Z,43.22
2023-05-13T12:01:17.676Z,42.67
2023-05-13T12:02:19.183Z,43.15
2023-05-13T12:03:20.718Z,43.30
2023-05-13T12:04:22.130Z,42.63
2023-05-13T12:05:24.162Z,42.58
2023-05-13T12:06:25.857Z,42.02
2023-05-13T12:07:27.381Z,41.90
2023-05-13T12:08:28.841Z,41.93
2023-05-13T12:09:30.272Z,41.48
2023-05-13T12:10:31.712Z,41.66
2023-05-13T12:11:33.189Z,41.45
2023-05-13T12:12:34.670Z,41.71
2023-05-13T12:13:36.123Z,41.42
2023-05-13T12:14:37.603Z,41.93
2023-05-13T12:15:39.136Z,41.49
2023-05-13T12:16:40.608Z,40.93
2023-05-13T12:17:42.078Z,41.32
2023-05-13T12:18:43.585Z,41.54
2023-05-13T12:19:45.033Z,41.32
2023-05-13T12:20:46.437Z,42.02
2023-05-13T12:21:47.880Z,41.73
2023-05-13T12:22:49.307Z,41.70
2023-05-13T12:23:50.733Z,41.49
2023-05-13T12:24:52.210Z,41.08
2023-05-13T12:25:53.604Z,40.86
2023-05-13T12:26:55.002Z,40.66
2023-05-13T12:27:56.446Z,40.66
2023-05-13T12:28:57.855Z,40.44
2023-05-13T12:29:59.252Z,40.42
2023-05-13T12:31:00.703Z,39.83
2023-05-13T12:32:02.177Z,39.73
2023-05-13T12:33:03.699Z,40.18
2023-05-13T12:34:05.234Z,40.54
2023-05-13T12:35:06.640Z,40.27
2023-05-13T12:36:08.027Z,40.33
2023-05-13T12:37:09.504Z,40.70
2023-05-13T12:38:11.283Z,40.24
2023-05-13T12:39:12.702Z,40.32
2023-05-13T12:40:14.111Z,40.26
2023-05-13T12:41:15.644Z,39.80
2023-05-13T12:42:17.076Z,40.09
2023-05-13T12:43:18.512Z,39.26
2023-05-13T12:44:19.948Z,39.36
2023-05-13T12:45:21.641Z,38.89
2023-05-13T12:46:23.308Z,39.47
2023-05-13T12:47:24.801Z,39.41
2023-05-13T12:48:26.262Z,39.14
2023-05-13T12:49:27.701Z,39.11
2023-05-13T12:50:29.151Z,39.49
2023-05-13T12:51:30.578Z,38.65
2023-05-13T12:52:32.020Z,38.96
2023-05-13T12:53:33.461Z,38.45
2023-05-13T12:54:34.897Z,38.28
2023-05-13T12:55:36.327Z,38.02
2023-05-13T12:56:37.765Z,38.09
2023-05-13T12:57:39.238Z,38.32
2023-05-13T12:58:40.785Z,38.44
2023-05-13T12:59:42.356Z,38.09
2023-05-13T13:00:44.525Z,37.76
2023-05-13T13:01:46.010Z,38.22
2023-05-13T13:02:47.565Z,37.75
2023-05-13T13:03:49.166Z,37.48
2023-05-13T13:04:50.684Z,38.08
2023-05-13T13:05:52.079Z,38.00
2023-05-13T13:06:53.550Z,38.05
2023-05-13T13:07:55.003Z,37.78
2023-05-13T13:08:56.431Z,37.83
2023-05-13T13:09:57.858Z,37.50
2023-05-13T13:10:59.288Z,38.01
2023-05-13T13:12:00.713Z,37.68
2023-05-13T13:13:02.159Z,38.12